Delray Beach, FL

2:17 PM EDT on April 25, 2015 (GMT -0400)
Palm Beach International | | Change Station
CLOSE
Current Station
Airport
Location: West Palm Beach,
Elevation: 20 ft
Nearby Weather Stations

Elev 20 ft 26.68 °N, 80.10 °W | Updated 24 minutes ago

Mostly Cloudy
Mostly Cloudy
86 °F
Feels Like 94 °F
N
13
Wind Variable Wind from SE

Today
High -- | Low -- °F
--% Chance of Precip.
Yesterday
High -- | Low -- °F
Precip. -- in
6:47 AM 7:49 PM
Waxing Crescent, 48% visible
Pressure 29.93 in
Visibility 10.0 miles
Clouds Scattered Clouds 2900 ft
Mostly Cloudy 3500 ft
Mostly Cloudy 6000 ft
Heat Index 94 °F
Dew Point 74 °F
Humidity 67%
Rainfall 0.00 in
Snow Depth Not available.
UV 8 out of 12
Pollen 4.70 out of 12
Air Quality Not available.
Flu Activity Local Activity
METAR KPBI 251753Z 14011KT 10SM SCT029 BKN035 BKN060 30/23 A2993 RMK AO2 SLP134 T03000233 10311 20256 58011 $

More Conditions Fewer Conditions

Pressure 29.93 in
Visibility 10.0 miles
Clouds Scattered Clouds 2900 ft
Mostly Cloudy 3500 ft
Mostly Cloudy 6000 ft
Heat Index 94 °F
Dew Point 74 °F
Humidity 67%
Rainfall 0.00 in
Snow Depth Not available.
UV 8 out of 12
Pollen 4.70 out of 12
Air Quality Not available.
Flu Activity Local Activity
METAR KPBI 251753Z 14011KT 10SM SCT029 BKN035 BKN060 30/23 A2993 RMK AO2 SLP134 T03000233 10311 20256 58011 $

More Conditions Fewer Conditions

Nowcast | as of 1:31 PM EDT on April 25, 2015

Scattered showers and isolated thunderstorms over The Everglades and Lake Okeechobee will move east and affect parts of Metro Southeast Florida and the adjacent waters through 4 PM. Most of the showers will be brief in duration, but one or two could contain lightning, heavy rain and gusty winds.

×

10-Day Weather Forecast

Almanac

Astronomy

Apr. 25, 2015 Rise Set
Actual Time
Civil Twilight
Nautical Twilight
Astronomical Twilight
Moon
Length of Visible Light
Length of Day
Tomorrow will be .
, % of the Moon is Illuminated

Today's Extremes

State Highs State Lows

Community

WunderPhotos

Upload Photos

1,816,763 photos uploaded!

WunderBlogs® & News

Nearby

Air Quality

  Air Quality AQ Index Pollutant
Not available.

Snow Depth

Station Depth Elevation

Earthquake Activity

City Distance Mag. Time & Date
Minimum magnitude displayed is 2.5.

Coastal Water Temperatures

Place Temperature

Stations

Nearby Weather Stations

Station Location Temp. Windchill Dew Point Humidity Wind Precip. Elev Updated Type